Time;durP1;ratioP1;P1;durP2;ratioP2;P2;SDS_P1;SDS_P2;PMS_P1;PMS_P2;Temp;Humidity;BMP_temperature;BMP_pressure;BME280_temperature;BME280_humidity;BME280_pressure;Samples;Min_cycle;Max_cycle;Signal;HPM_P1;HPM_P2
2023/09/04 00:01:03;;;;;;;1.95;1.40;;;15.50;99.90;;;;;;5115080;28;20058;-72
2023/09/04 00:03:28;;;;;;;2.55;1.27;;;15.50;99.90;;;;;;5114866;28;20479;-73
2023/09/04 00:05:55;;;;;;;2.53;1.38;;;15.50;99.90;;;;;;5115038;28;20023;-73
2023/09/04 00:08:21;;;;;;;1.65;1.13;;;15.50;99.90;;;;;;5115085;28;20488;-73
2023/09/04 00:10:47;;;;;;;2.78;1.15;;;15.50;99.90;;;;;;5114897;28;20043;-73
2023/09/04 00:13:13;;;;;;;1.98;1.30;;;15.50;99.90;;;;;;5115322;28;20032;-73
2023/09/04 00:15:39;;;;;;;2.33;1.60;;;15.50;99.90;;;;;;5114897;28;20036;-73
2023/09/04 00:18:06;;;;;;;3.65;1.70;;;15.50;99.90;;;;;;5114813;28;20034;-73
2023/09/04 00:20:31;;;;;;;2.30;1.70;;;15.40;99.90;;;;;;5114461;28;20028;-73
2023/09/04 00:22:57;;;;;;;3.20;1.65;;;15.30;99.90;;;;;;5096333;28;20031;-73
2023/09/04 00:25:23;;;;;;;3.15;1.67;;;15.30;99.90;;;;;;5114414;28;20114;-73
2023/09/04 00:27:48;;;;;;;3.72;1.60;;;15.30;99.90;;;;;;5114380;28;20098;-72
2023/09/04 00:30:14;;;;;;;3.70;1.60;;;15.30;99.90;;;;;;5114307;28;20476;-72
2023/09/04 00:32:40;;;;;;;3.30;1.60;;;15.20;99.90;;;;;;5114599;28;20077;-73
2023/09/04 00:35:07;;;;;;;2.95;1.67;;;15.20;99.90;;;;;;5114283;28;20034;-73
2023/09/04 00:37:33;;;;;;;3.15;1.67;;;15.20;99.90;;;;;;5114266;28;20077;-73
2023/09/04 00:39:58;;;;;;;2.97;1.75;;;15.10;99.90;;;;;;5114384;28;20028;-73
2023/09/04 00:42:28;;;;;;;2.83;1.70;;;15.10;99.90;;;;;;5114229;28;20099;-73
2023/09/04 00:44:54;;;;;;;2.65;1.52;;;15.10;99.90;;;;;;5095928;28;20035;-73
2023/09/04 00:47:23;;;;;;;4.15;1.35;;;15.10;99.90;;;;;;5095934;28;20426;-72
2023/09/04 00:49:50;;;;;;;2.55;1.70;;;15.10;99.90;;;;;;5114393;28;20016;-73
2023/09/04 00:52:16;;;;;;;2.63;1.60;;;15.10;99.90;;;;;;5114256;28;20028;-73
2023/09/04 00:54:42;;;;;;;2.78;1.70;;;15.10;99.90;;;;;;5113841;28;20054;-73
2023/09/04 00:57:10;;;;;;;5.00;1.73;;;15.10;99.90;;;;;;5095888;28;20557;-73
2023/09/04 00:59:36;;;;;;;2.15;1.35;;;15.10;99.90;;;;;;5113918;28;20072;-73
2023/09/04 01:02:04;;;;;;;3.67;1.45;;;15.10;99.90;;;;;;5113732;28;20114;-73
2023/09/04 01:04:30;;;;;;;2.75;1.40;;;15.10;99.90;;;;;;5089964;28;20035;-72
2023/09/04 01:06:57;;;;;;;5.93;2.00;;;15.10;99.90;;;;;;5093268;28;20028;-72
2023/09/04 01:09:23;;;;;;;2.13;1.40;;;15.00;99.90;;;;;;5093685;28;20477;-72
2023/09/04 01:12:09;;;;;;;2.40;1.40;;;15.00;99.90;;;;;;5093653;28;20024;-72
2023/09/04 01:14:36;;;;;;;4.20;1.67;;;15.00;99.90;;;;;;5102105;28;20476;-72
2023/09/04 01:17:03;;;;;;;3.83;1.38;;;15.00;99.90;;;;;;5113157;28;20032;-72
2023/09/04 01:19:29;;;;;;;2.55;1.40;;;15.00;99.90;;;;;;5113204;28;20055;-72
2023/09/04 01:21:55;;;;;;;2.42;1.40;;;15.00;99.90;;;;;;5113032;28;20107;-72
2023/09/04 01:24:20;;;;;;;2.90;1.40;;;15.00;99.90;;;;;;5113142;28;20149;-72
2023/09/04 01:27:18;;;;;;;3.15;1.50;;;14.90;99.90;;;;;;5094751;28;20032;-72
2023/09/04 01:29:52;;;;;;;4.00;1.60;;;14.90;99.90;;;;;;5103125;28;20093;-73
2023/09/04 01:32:27;;;;;;;3.42;1.27;;;14.90;99.90;;;;;;5093433;28;20472;-72
2023/09/04 01:34:55;;;;;;;2.38;1.23;;;14.80;99.90;;;;;;5093561;28;20491;-72
2023/09/04 01:37:22;;;;;;;2.70;1.30;;;14.90;99.90;;;;;;5093489;28;20378;-73
2023/09/04 01:39:49;;;;;;;2.10;1.35;;;14.80;99.90;;;;;;5092551;28;20385;-72
2023/09/04 01:42:15;;;;;;;2.22;1.30;;;14.80;99.90;;;;;;5091996;28;20020;-72
2023/09/04 01:44:43;;;;;;;2.13;1.23;;;14.80;99.90;;;;;;5093987;28;20500;-73
2023/09/04 01:47:09;;;;;;;4.22;1.45;;;14.80;99.90;;;;;;5075143;28;20024;-73
2023/09/04 01:49:35;;;;;;;4.38;1.52;;;14.70;99.90;;;;;;5075256;28;20027;-73
2023/09/04 01:52:01;;;;;;;3.13;1.30;;;14.70;99.90;;;;;;5093014;28;20036;-73
2023/09/04 01:54:27;;;;;;;4.53;1.40;;;14.70;99.90;;;;;;5093021;28;20408;-73
2023/09/04 01:56:53;;;;;;;3.30;1.90;;;14.70;99.90;;;;;;5093115;28;20040;-73
2023/09/04 01:59:18;;;;;;;3.53;1.40;;;14.70;99.90;;;;;;5093098;28;20032;-73
2023/09/04 02:01:44;;;;;;;2.67;1.30;;;14.60;99.90;;;;;;5092961;28;20039;-73
2023/09/04 02:04:09;;;;;;;2.45;1.38;;;14.60;99.90;;;;;;5093265;28;20028;-73
2023/09/04 02:06:35;;;;;;;2.92;1.60;;;14.60;99.90;;;;;;5074795;28;20067;-73
2023/09/04 02:09:02;;;;;;;2.17;1.35;;;14.50;99.90;;;;;;5093260;28;20020;-73
2023/09/04 02:11:28;;;;;;;2.20;1.30;;;14.50;99.90;;;;;;5093426;28;20107;-73
2023/09/04 02:13:54;;;;;;;3.17;1.92;;;14.50;99.90;;;;;;5093613;28;20030;-73
2023/09/04 02:16:20;;;;;;;2.72;1.55;;;14.40;99.90;;;;;;5092976;28;20021;-73
2023/09/04 02:18:45;;;;;;;5.05;1.73;;;14.40;99.90;;;;;;5095898;28;20034;-72
2023/09/04 02:21:11;;;;;;;3.13;1.58;;;14.40;99.90;;;;;;5078259;28;20034;-72
2023/09/04 02:23:37;;;;;;;3.22;1.58;;;14.40;99.90;;;;;;5096667;28;20103;-73
2023/09/04 02:26:02;;;;;;;2.78;1.60;;;14.30;99.90;;;;;;5096592;28;20059;-72
2023/09/04 02:28:29;;;;;;;6.18;2.13;;;14.30;99.90;;;;;;5078545;28;20024;-73
2023/09/04 02:30:55;;;;;;;2.53;1.48;;;14.30;99.90;;;;;;5096190;28;20038;-73
2023/09/04 02:33:20;;;;;;;2.78;1.77;;;14.30;99.90;;;;;;5096252;28;20103;-73
2023/09/04 02:35:46;;;;;;;4.97;1.95;;;14.30;99.90;;;;;;5096204;28;20040;-73
2023/09/04 02:38:12;;;;;;;2.70;1.52;;;14.30;99.90;;;;;;5096135;28;20531;-73
2023/09/04 02:40:37;;;;;;;4.38;1.50;;;14.30;99.90;;;;;;5096015;28;20035;-73
2023/09/04 02:43:03;;;;;;;2.25;1.55;;;14.20;99.90;;;;;;5096100;28;20038;-73
2023/09/04 02:45:29;;;;;;;3.53;2.10;;;14.10;99.90;;;;;;5077990;28;20055;-73
2023/09/04 02:47:54;;;;;;;2.22;1.70;;;14.00;99.90;;;;;;5095959;28;20055;-72
2023/09/04 02:50:20;;;;;;;4.13;2.05;;;14.00;99.90;;;;;;5096135;28;20121;-72
2023/09/04 02:52:46;;;;;;;3.50;1.88;;;13.90;99.90;;;;;;5096033;28;20031;-73
2023/09/04 02:55:12;;;;;;;3.30;2.10;;;13.90;99.90;;;;;;5095642;28;20035;-72
2023/09/04 02:57:38;;;;;;;3.10;2.13;;;13.80;99.90;;;;;;5095810;28;20016;-73
2023/09/04 03:00:06;;;;;;;3.45;2.50;;;13.90;99.90;;;;;;5095927;28;20449;-72
2023/09/04 03:02:33;;;;;;;4.15;2.85;;;13.80;99.90;;;;;;5095685;28;20077;-73
2023/09/04 03:04:58;;;;;;;6.07;3.55;;;13.80;99.90;;;;;;5095864;28;20024;-72
2023/09/04 03:07:27;;;;;;;8.02;3.50;;;13.70;99.90;;;;;;5095631;28;20107;-73
2023/09/04 03:10:00;;;;;;;7.00;3.53;;;13.60;99.90;;;;;;5095593;28;20022;-72
2023/09/04 03:12:32;;;;;;;7.13;3.55;;;13.40;99.90;;;;;;5077378;28;20032;-72
2023/09/04 03:15:00;;;;;;;11.32;3.30;;;13.50;99.90;;;;;;5095546;28;20016;-73
2023/09/04 03:17:27;;;;;;;7.35;3.53;;;13.50;99.90;;;;;;5095757;28;20097;-73
2023/09/04 03:19:54;;;;;;;8.32;3.88;;;13.50;99.90;;;;;;5095378;28;20051;-72
2023/09/04 03:22:21;;;;;;;5.85;3.33;;;13.50;99.90;;;;;;5095277;28;20496;-73
2023/09/04 03:24:47;;;;;;;8.60;4.05;;;13.60;99.90;;;;;;5077414;28;20385;-73
2023/09/04 03:27:12;;;;;;;5.97;3.92;;;13.60;99.90;;;;;;5077083;28;20036;-72
2023/09/04 03:29:38;;;;;;;9.60;4.07;;;13.70;99.90;;;;;;5060078;28;20085;-73
2023/09/04 03:32:04;;;;;;;8.65;4.18;;;13.70;99.90;;;;;;5095045;28;20028;-72
2023/09/04 03:34:31;;;;;;;8.43;4.80;;;13.70;99.90;;;;;;5095091;28;20031;-73
2023/09/04 03:36:57;;;;;;;7.07;4.80;;;13.80;99.90;;;;;;5095025;28;20020;-73
2023/09/04 03:39:23;;;;;;;6.60;4.53;;;13.80;99.90;;;;;;5095053;28;20119;-73
2023/09/04 03:41:49;;;;;;;7.40;4.53;;;13.80;99.90;;;;;;5094982;28;20028;-73
2023/09/04 03:44:14;;;;;;;6.70;3.97;;;13.80;99.90;;;;;;5094885;28;20043;-73
2023/09/04 03:46:40;;;;;;;5.63;3.30;;;13.90;99.90;;;;;;5094806;28;20024;-73
2023/09/04 03:49:09;;;;;;;5.22;3.00;;;13.90;99.90;;;;;;5095080;28;20073;-73
2023/09/04 03:51:35;;;;;;;4.18;3.20;;;13.90;99.90;;;;;;5094700;28;20111;-72
2023/09/04 03:54:04;;;;;;;5.32;3.13;;;13.90;99.90;;;;;;5094646;28;20119;-72
2023/09/04 03:56:31;;;;;;;4.28;3.15;;;14.00;99.90;;;;;;5094757;28;20404;-73
2023/09/04 03:58:57;;;;;;;4.95;3.50;;;14.00;99.90;;;;;;5094623;28;20024;-73
2023/09/04 04:01:23;;;;;;;4.95;3.13;;;14.00;99.90;;;;;;5094567;28;20023;-72
2023/09/04 04:03:50;;;;;;;4.20;3.30;;;14.00;99.90;;;;;;5076370;28;20020;-73
2023/09/04 04:06:16;;;;;;;4.35;3.30;;;14.00;99.90;;;;;;5094384;28;20097;-73
2023/09/04 04:08:45;;;;;;;4.07;2.60;;;14.00;99.90;;;;;;5094454;28;20093;-73
2023/09/04 04:11:10;;;;;;;4.00;3.15;;;14.00;99.90;;;;;;5094348;28;20016;-72
2023/09/04 04:13:36;;;;;;;5.75;3.55;;;14.00;99.90;;;;;;5094362;28;20437;-72
2023/09/04 04:16:02;;;;;;;5.82;3.63;;;13.90;99.90;;;;;;5094580;28;20430;-72
2023/09/04 04:18:29;;;;;;;7.35;3.63;;;13.80;99.90;;;;;;5076098;28;20031;-73
2023/09/04 04:20:56;;;;;;;4.55;3.30;;;13.80;99.90;;;;;;5094244;28;20082;-72
2023/09/04 04:23:22;;;;;;;4.05;2.75;;;13.80;99.90;;;;;;5094173;28;20115;-73
2023/09/04 04:25:49;;;;;;;3.63;2.33;;;13.70;99.90;;;;;;5075907;28;20548;-72
2023/09/04 04:28:24;;;;;;;3.25;2.40;;;13.70;99.90;;;;;;5094193;28;20396;-73
2023/09/04 04:30:49;;;;;;;3.85;2.65;;;13.70;99.90;;;;;;5093988;28;20067;-73
2023/09/04 04:33:15;;;;;;;3.70;2.78;;;13.70;99.90;;;;;;5093995;28;20500;-73
2023/09/04 04:35:41;;;;;;;4.15;2.60;;;13.70;99.90;;;;;;5094273;28;20024;-73
2023/09/04 04:38:07;;;;;;;3.30;2.38;;;13.80;99.90;;;;;;5094016;28;20028;-73
2023/09/04 04:40:33;;;;;;;3.13;2.35;;;13.80;99.90;;;;;;5093201;28;20035;-73
2023/09/04 04:42:59;;;;;;;3.15;2.35;;;13.80;99.90;;;;;;5093751;28;20028;-72
2023/09/04 04:45:28;;;;;;;5.28;3.22;;;13.80;99.90;;;;;;5093265;28;20392;-72
2023/09/04 04:47:53;;;;;;;3.70;2.70;;;13.80;99.90;;;;;;5075929;28;20059;-73
2023/09/04 04:50:19;;;;;;;4.57;2.50;;;13.90;99.90;;;;;;5093676;28;20054;-74
2023/09/04 04:52:46;;;;;;;3.90;2.30;;;13.90;99.90;;;;;;5092689;28;20511;-73
2023/09/04 04:55:12;;;;;;;4.18;2.63;;;13.90;99.90;;;;;;5093590;28;20027;-74
2023/09/04 04:57:39;;;;;;;2.92;1.85;;;13.90;99.90;;;;;;5093697;28;20047;-74
2023/09/04 05:00:09;;;;;;;2.72;2.00;;;13.80;99.90;;;;;;5093576;28;20024;-74
2023/09/04 05:02:35;;;;;;;3.63;2.10;;;13.80;99.90;;;;;;5059200;28;20028;-74
2023/09/04 05:05:00;;;;;;;2.92;2.08;;;13.80;99.90;;;;;;5093726;28;20038;-73
2023/09/04 05:07:28;;;;;;;4.88;2.10;;;13.70;99.90;;;;;;5074372;28;20040;-73
2023/09/04 05:09:55;;;;;;;3.97;2.83;;;13.70;99.90;;;;;;5075646;28;20028;-73
2023/09/04 05:12:21;;;;;;;3.63;2.53;;;13.60;99.90;;;;;;5093606;28;20029;-73
2023/09/04 05:14:47;;;;;;;3.72;2.10;;;13.70;99.90;;;;;;5101483;28;20491;-73
2023/09/04 05:17:13;;;;;;;4.57;2.97;;;13.70;99.90;;;;;;5113220;28;20122;-74
2023/09/04 05:19:38;;;;;;;5.53;2.90;;;13.70;99.90;;;;;;5113196;28;20152;-73
2023/09/04 05:22:04;;;;;;;7.38;3.35;;;13.70;99.90;;;;;;5112824;28;20110;-73
2023/09/04 05:24:30;;;;;;;4.43;2.90;;;13.70;99.90;;;;;;5094876;28;20032;-73
2023/09/04 05:26:56;;;;;;;4.55;3.30;;;13.70;99.90;;;;;;5113056;28;20570;-73
2023/09/04 05:29:21;;;;;;;4.70;3.40;;;13.70;99.90;;;;;;5113144;28;20032;-73
2023/09/04 05:31:53;;;;;;;5.55;3.60;;;13.70;99.90;;;;;;5112985;28;20016;-73
2023/09/04 05:34:19;;;;;;;5.18;3.47;;;13.70;99.90;;;;;;5113108;28;20026;-73
2023/09/04 05:36:46;;;;;;;4.70;3.20;;;13.80;99.90;;;;;;5112771;28;20039;-74
2023/09/04 05:39:11;;;;;;;4.93;3.40;;;13.80;99.90;;;;;;5113014;28;20586;-73
2023/09/04 05:41:37;;;;;;;6.07;3.25;;;13.70;99.90;;;;;;5112435;28;20034;-73
2023/09/04 05:44:03;;;;;;;5.50;3.53;;;13.70;99.90;;;;;;5104126;28;20426;-73
2023/09/04 05:46:33;;;;;;;8.27;3.95;;;13.80;99.90;;;;;;5075148;28;20542;-73
2023/09/04 05:48:58;;;;;;;4.60;2.97;;;13.80;99.90;;;;;;5092159;28;20020;-73
2023/09/04 05:51:25;;;;;;;4.80;3.15;;;13.80;99.90;;;;;;5096136;28;20050;-73
2023/09/04 05:53:50;;;;;;;7.20;3.70;;;13.80;99.90;;;;;;5096886;28;20039;-74
2023/09/04 05:56:17;;;;;;;5.97;3.75;;;13.80;99.90;;;;;;5097308;28;20028;-73
2023/09/04 05:58:50;;;;;;;5.22;4.10;;;13.90;99.90;;;;;;5096962;28;20060;-73
2023/09/04 06:01:17;;;;;;;4.82;3.60;;;13.90;99.90;;;;;;5096917;28;20472;-73
2023/09/04 06:03:44;;;;;;;4.75;3.63;;;13.90;99.90;;;;;;5097170;28;20036;-73
2023/09/04 06:06:11;;;;;;;5.43;3.78;;;14.00;99.90;;;;;;5097017;28;20024;-73
2023/09/04 06:08:37;;;;;;;5.60;3.75;;;14.00;99.90;;;;;;5096805;28;20445;-73
2023/09/04 06:11:03;;;;;;;6.63;4.18;;;14.10;99.90;;;;;;5096911;28;20051;-73
2023/09/04 06:13:30;;;;;;;5.78;4.20;;;14.10;99.90;;;;;;5104284;28;20110;-73
2023/09/04 06:15:56;;;;;;;5.60;3.35;;;14.20;99.90;;;;;;5116452;28;20032;-74
2023/09/04 06:18:22;;;;;;;5.57;4.20;;;14.20;99.90;;;;;;5098546;28;20031;-73
2023/09/04 06:20:49;;;;;;;6.47;4.32;;;14.20;99.90;;;;;;5116774;28;20031;-73
2023/09/04 06:23:14;;;;;;;6.22;3.90;;;14.20;99.90;;;;;;5097725;28;20484;-73
2023/09/04 06:25:42;;;;;;;5.57;4.03;;;14.20;99.90;;;;;;5116456;28;20063;-73
2023/09/04 06:28:09;;;;;;;6.20;3.72;;;14.20;99.90;;;;;;5115885;28;20476;-73
2023/09/04 06:30:35;;;;;;;5.53;3.95;;;14.30;99.90;;;;;;5114948;28;20464;-73
2023/09/04 06:33:02;;;;;;;6.63;3.67;;;14.30;99.90;;;;;;5116055;28;20038;-73
2023/09/04 06:35:31;;;;;;;6.25;3.78;;;14.40;99.90;;;;;;5116093;28;20030;-73
2023/09/04 06:37:57;;;;;;;5.65;3.58;;;14.40;99.90;;;;;;5098213;28;20020;-73
2023/09/04 06:40:23;;;;;;;9.27;4.78;;;14.50;99.90;;;;;;5098340;28;20039;-73
2023/09/04 06:42:49;;;;;;;7.50;5.30;;;14.50;99.90;;;;;;5116532;28;20036;-74
2023/09/04 06:45:15;;;;;;;9.18;6.13;;;14.60;99.90;;;;;;5116438;28;20031;-74
2023/09/04 06:47:41;;;;;;;8.18;5.68;;;14.60;99.90;;;;;;5116504;28;20020;-74
2023/09/04 06:50:08;;;;;;;8.75;6.35;;;14.60;99.90;;;;;;5116648;28;20031;-73
2023/09/04 06:52:34;;;;;;;11.57;7.38;;;14.60;99.90;;;;;;5116201;28;20051;-73
2023/09/04 06:54:59;;;;;;;7.38;5.70;;;14.60;99.90;;;;;;5112570;28;20028;-73
2023/09/04 06:57:25;;;;;;;8.93;6.35;;;14.50;99.90;;;;;;5114178;28;20018;-73
2023/09/04 06:59:52;;;;;;;9.38;6.78;;;14.60;99.90;;;;;;5114856;28;20028;-73
2023/09/04 07:02:19;;;;;;;9.70;7.07;;;14.60;99.90;;;;;;5096200;28;20384;-73
2023/09/04 07:04:45;;;;;;;7.75;5.82;;;14.60;99.90;;;;;;5095836;28;20391;-73
2023/09/04 07:07:11;;;;;;;8.85;6.30;;;14.60;99.90;;;;;;5097194;28;20524;-74
2023/09/04 07:09:37;;;;;;;8.20;6.32;;;14.60;99.90;;;;;;5115370;28;20051;-74
2023/09/04 07:12:03;;;;;;;8.23;6.43;;;14.70;99.90;;;;;;5115839;28;20456;-74
2023/09/04 07:14:29;;;;;;;11.15;7.55;;;14.70;99.90;;;;;;5115977;28;20428;-75
2023/09/04 07:16:54;;;;;;;10.63;7.13;;;14.70;99.90;;;;;;5116494;28;20063;-74
2023/09/04 07:19:20;;;;;;;12.13;7.93;;;14.70;99.90;;;;;;5115810;28;20023;-74
2023/09/04 07:21:46;;;;;;;12.82;9.13;;;14.80;99.90;;;;;;5116026;28;20028;-74
2023/09/04 07:24:12;;;;;;;9.82;7.78;;;14.90;99.90;;;;;;5115833;28;20414;-75
2023/09/04 07:26:38;;;;;;;11.35;8.15;;;14.90;99.90;;;;;;5115650;28;20428;-74
2023/09/04 07:29:03;;;;;;;12.63;8.60;;;15.00;99.90;;;;;;5115663;28;20056;-74
2023/09/04 07:31:29;;;;;;;12.02;8.10;;;15.00;99.90;;;;;;5097463;28;20032;-73
2023/09/04 07:33:55;;;;;;;14.57;8.95;;;15.00;99.90;;;;;;5115834;28;20099;-74
2023/09/04 07:36:21;;;;;;;10.52;7.85;;;15.10;99.90;;;;;;5115558;28;20035;-74
2023/09/04 07:38:47;;;;;;;11.02;7.97;;;15.10;99.90;;;;;;5116042;28;20491;-74
2023/09/04 07:41:13;;;;;;;9.30;6.97;;;15.20;99.90;;;;;;5115338;28;20039;-73
2023/09/04 07:43:38;;;;;;;8.93;6.30;;;15.20;99.90;;;;;;5115561;28;20149;-74
2023/09/04 07:46:04;;;;;;;8.75;6.25;;;15.30;99.90;;;;;;5115257;28;20039;-74
2023/09/04 07:48:30;;;;;;;8.00;5.47;;;15.40;99.90;;;;;;5115543;28;20020;-74
2023/09/04 07:50:56;;;;;;;7.72;5.57;;;15.50;99.90;;;;;;5115143;28;20015;-73
2023/09/04 07:53:23;;;;;;;6.40;5.13;;;15.50;99.90;;;;;;5115147;28;20050;-75
2023/09/04 07:55:51;;;;;;;6.53;5.00;;;15.60;99.90;;;;;;5115186;28;20027;-75
2023/09/04 07:58:17;;;;;;;8.10;6.22;;;15.70;99.90;;;;;;5115144;28;20031;-75
2023/09/04 08:00:45;;;;;;;9.05;6.53;;;15.90;99.90;;;;;;5096898;28;20451;-74
2023/09/04 08:03:11;;;;;;;7.20;5.72;;;16.00;99.90;;;;;;5096741;28;20023;-75
2023/09/04 08:05:37;;;;;;;7.95;4.68;;;16.10;99.90;;;;;;5115134;28;20024;-75
2023/09/04 08:08:07;;;;;;;5.88;4.22;;;16.30;99.90;;;;;;5115862;28;20030;-74
2023/09/04 08:10:34;;;;;;;12.27;5.50;;;16.40;99.90;;;;;;5115775;28;20417;-74
2023/09/04 08:12:59;;;;;;;7.90;5.38;;;16.60;99.90;;;;;;5114833;28;20076;-75
2023/09/04 08:15:25;;;;;;;7.13;4.13;;;16.70;99.90;;;;;;5113704;28;20020;-75
2023/09/04 08:17:50;;;;;;;6.57;4.18;;;16.90;99.90;;;;;;5096492;28;20140;-74
2023/09/04 08:20:16;;;;;;;6.90;3.97;;;17.00;99.90;;;;;;5096791;28;20035;-75
2023/09/04 08:22:43;;;;;;;5.38;3.60;;;17.10;99.90;;;;;;5114604;28;20019;-75
2023/09/04 08:25:09;;;;;;;6.43;3.95;;;17.20;99.90;;;;;;5096327;28;20053;-75
2023/09/04 08:27:38;;;;;;;6.18;4.63;;;17.40;99.90;;;;;;5114490;28;20028;-74
2023/09/04 08:30:04;;;;;;;6.78;4.30;;;17.50;99.90;;;;;;5114350;28;20024;-74
2023/09/04 08:32:29;;;;;;;5.05;4.20;;;17.60;99.90;;;;;;5096239;28;20480;-75
2023/09/04 08:34:55;;;;;;;6.07;4.00;;;17.70;99.90;;;;;;5114647;28;20034;-75
2023/09/04 08:37:21;;;;;;;4.53;3.00;;;17.80;99.90;;;;;;5114434;28;20103;-75
2023/09/04 08:39:46;;;;;;;4.28;3.58;;;18.00;99.90;;;;;;5114302;28;20476;-75
2023/09/04 08:42:12;;;;;;;6.18;3.53;;;18.10;99.90;;;;;;5114455;28;20110;-74
2023/09/04 08:44:39;;;;;;;6.45;3.25;;;18.20;99.90;;;;;;5114358;28;20039;-74
2023/09/04 08:47:06;;;;;;;4.05;2.90;;;18.40;99.90;;;;;;5114095;28;20027;-75
2023/09/04 08:49:32;;;;;;;7.13;3.20;;;18.50;99.90;;;;;;5114204;28;20023;-75
2023/09/04 08:51:59;;;;;;;3.72;2.75;;;18.70;99.90;;;;;;5114010;28;20028;-74
2023/09/04 08:54:25;;;;;;;12.18;4.57;;;18.90;99.90;;;;;;5113846;28;20024;-75
2023/09/04 08:56:51;;;;;;;9.70;4.55;;;19.00;99.90;;;;;;5096286;28;20529;-75
2023/09/04 08:59:16;;;;;;;13.07;3.78;;;19.10;99.90;;;;;;5095895;28;20031;-75
2023/09/04 09:01:42;;;;;;;5.18;2.72;;;19.20;99.90;;;;;;5114024;28;20027;-74
2023/09/04 09:04:09;;;;;;;5.80;3.20;;;19.20;99.90;;;;;;5114048;28;20034;-76
2023/09/04 09:06:36;;;;;;;6.47;3.45;;;19.40;99.90;;;;;;5113841;28;20019;-75
2023/09/04 09:09:03;;;;;;;5.63;3.30;;;19.50;99.90;;;;;;5113865;28;20026;-75
2023/09/04 09:11:29;;;;;;;6.18;3.08;;;19.70;99.90;;;;;;5113812;28;20456;-74
2023/09/04 09:13:54;;;;;;;3.38;2.53;;;19.80;99.90;;;;;;5113817;28;20024;-75
2023/09/04 09:16:21;;;;;;;3.00;2.38;;;19.90;99.90;;;;;;5113880;28;20098;-75
2023/09/04 09:18:48;;;;;;;5.00;2.28;;;20.10;99.90;;;;;;5114064;28;20072;-74
2023/09/04 09:21:24;;;;;;;3.50;2.55;;;20.20;99.90;;;;;;5113804;28;20105;-75
2023/09/04 09:24:19;;;;;;;6.07;2.45;;;20.20;99.90;;;;;;5114161;28;20543;-75
2023/09/04 09:26:47;;;;;;;4.90;2.35;;;20.40;99.90;;;;;;5115740;28;20034;-75
2023/09/04 09:29:13;;;;;;;4.07;2.40;;;20.50;99.90;;;;;;5118495;28;20181;-75
2023/09/04 09:31:42;;;;;;;3.83;2.40;;;20.60;99.90;;;;;;5118837;28;20012;-75
2023/09/04 09:34:09;;;;;;;3.60;2.53;;;20.70;99.90;;;;;;5118513;28;20445;-75
2023/09/04 09:36:35;;;;;;;5.57;2.45;;;20.80;99.90;;;;;;5099884;28;20129;-76
2023/09/04 09:39:02;;;;;;;5.05;2.30;;;21.00;99.90;;;;;;5099825;28;20035;-76
2023/09/04 09:41:29;;;;;;;4.25;2.30;;;21.10;99.90;;;;;;5118301;28;20027;-76
2023/09/04 09:43:55;;;;;;;5.43;2.63;;;21.30;99.90;;;;;;5117653;28;20448;-76
2023/09/04 09:46:21;;;;;;;4.10;2.53;;;21.40;99.90;;;;;;5099324;28;20114;-76
2023/09/04 09:48:47;;;;;;;4.05;2.08;;;21.50;99.90;;;;;;5117634;28;20072;-76
2023/09/04 09:51:13;;;;;;;3.88;2.58;;;21.60;99.90;;;;;;5099212;28;20024;-76
2023/09/04 09:53:50;;;;;;;3.60;1.98;;;21.80;99.90;;;;;;5117398;28;20034;-76
2023/09/04 09:56:18;;;;;;;2.50;1.77;;;21.80;99.90;;;;;;5117615;28;20027;-76
2023/09/04 09:58:45;;;;;;;2.75;1.83;;;22.00;99.90;;;;;;5117442;28;20039;-76
2023/09/04 10:01:16;;;;;;;2.88;1.85;;;22.10;99.90;;;;;;5117480;28;20028;-76
2023/09/04 10:03:44;;;;;;;4.60;1.70;;;22.20;99.90;;;;;;5117344;28;20024;-76
2023/09/04 10:06:14;;;;;;;2.75;1.52;;;22.30;99.90;;;;;;5117235;28;20028;-76
2023/09/04 10:08:43;;;;;;;1.75;1.23;;;22.40;99.90;;;;;;5117503;28;20417;-76
2023/09/04 10:11:14;;;;;;;3.55;1.83;;;22.60;99.90;;;;;;5098950;28;20110;-76
2023/09/04 10:14:07;;;;;;;2.60;1.42;;;22.70;99.90;;;;;;5117339;28;20024;-76
2023/09/04 10:16:40;;;;;;;3.72;1.25;;;22.90;99.90;;;;;;5117474;28;20102;-76
2023/09/04 10:19:10;;;;;;;2.65;1.52;;;23.00;99.90;;;;;;5116755;28;20034;-75
2023/09/04 10:21:40;;;;;;;2.72;1.30;;;23.10;99.90;;;;;;5116283;28;20019;-76
2023/09/04 10:24:11;;;;;;;4.07;1.40;;;23.20;99.90;;;;;;5117332;28;20418;-76
2023/09/04 10:26:46;;;;;;;2.65;1.50;;;23.30;99.90;;;;;;5099147;28;20383;-76
2023/09/04 10:29:18;;;;;;;2.40;1.20;;;23.40;99.60;;;;;;5117093;28;20102;-74
2023/09/04 10:31:45;;;;;;;1.85;1.20;;;23.60;99.50;;;;;;5116883;28;20065;-74
2023/09/04 10:34:11;;;;;;;3.22;1.33;;;23.70;98.50;;;;;;5116768;28;20020;-75
2023/09/04 10:36:38;;;;;;;3.90;1.48;;;23.80;96.70;;;;;;5116785;28;20054;-74
2023/09/04 10:39:08;;;;;;;2.22;1.13;;;23.90;95.70;;;;;;5105549;28;20077;-74
2023/09/04 10:41:35;;;;;;;2.42;1.48;;;24.00;93.80;;;;;;5096403;28;20032;-74
2023/09/04 10:44:01;;;;;;;3.75;1.38;;;24.00;91.70;;;;;;5096409;28;20031;-75
2023/09/04 10:46:26;;;;;;;2.67;1.52;;;24.00;91.00;;;;;;5077148;28;20563;-75
2023/09/04 10:48:53;;;;;;;2.88;1.40;;;24.10;86.10;;;;;;5078141;28;20107;-74
2023/09/04 10:51:25;;;;;;;4.50;1.50;;;24.20;86.10;;;;;;5094600;28;20024;-75
2023/09/04 10:53:51;;;;;;;2.15;1.50;;;24.30;81.50;;;;;;5095620;28;20511;-74
2023/09/04 10:56:16;;;;;;;3.00;1.48;;;24.40;82.80;;;;;;5095505;28;20055;-75
2023/09/04 10:59:02;;;;;;;3.10;1.70;;;24.40;86.80;;;;;;5095981;28;20093;-74
2023/09/04 11:01:38;;;;;;;2.00;1.20;;;24.50;90.40;;;;;;5115417;28;20023;-75
2023/09/04 11:04:08;;;;;;;2.60;1.50;;;24.60;90.80;;;;;;5115585;28;20114;-75
2023/09/04 11:06:37;;;;;;;3.03;1.60;;;24.60;89.40;;;;;;5115422;28;20479;-75
2023/09/04 11:09:03;;;;;;;2.97;1.67;;;24.70;88.00;;;;;;5115557;28;20024;-74
2023/09/04 11:11:30;;;;;;;2.35;1.52;;;24.70;88.80;;;;;;5115281;28;20027;-75
2023/09/04 11:14:09;;;;;;;2.40;1.60;;;24.80;84.50;;;;;;5115337;28;20502;-75
2023/09/04 11:16:48;;;;;;;3.20;1.65;;;24.90;79.50;;;;;;5099125;28;20028;-74
2023/09/04 11:19:15;;;;;;;2.50;1.67;;;24.90;81.70;;;;;;5095754;28;20028;-74
2023/09/04 11:21:45;;;;;;;2.78;2.00;;;25.00;77.00;;;;;;5095416;28;20020;-74
2023/09/04 11:24:11;;;;;;;2.20;1.33;;;25.10;75.80;;;;;;5094730;28;20085;-74
2023/09/04 11:26:38;;;;;;;2.53;1.55;;;25.10;79.10;;;;;;5095336;28;20032;-75
2023/09/04 11:29:05;;;;;;;2.35;1.50;;;25.20;81.40;;;;;;5077711;28;20028;-74
2023/09/04 11:31:32;;;;;;;2.28;1.58;;;25.20;79.40;;;;;;5095238;28;20032;-74
2023/09/04 11:33:58;;;;;;;2.20;1.50;;;25.30;75.20;;;;;;5095463;28;20024;-75
2023/09/04 11:36:25;;;;;;;2.05;1.30;;;25.30;80.80;;;;;;5102635;28;20034;-75
2023/09/04 11:39:12;;;;;;;2.22;1.42;;;25.40;78.60;;;;;;5106912;28;20421;-74
2023/09/04 11:41:38;;;;;;;5.18;1.70;;;25.40;76.70;;;;;;5097358;28;20024;-75
2023/09/04 11:44:06;;;;;;;3.65;1.60;;;25.50;76.70;;;;;;5109636;28;20020;-75
2023/09/04 11:46:33;;;;;;;2.53;1.40;;;25.50;78.10;;;;;;5099272;28;20020;-75
2023/09/04 11:49:05;;;;;;;3.45;1.50;;;25.60;77.60;;;;;;5093262;28;20020;-75
2023/09/04 11:51:32;;;;;;;3.30;1.55;;;25.70;76.70;;;;;;5095128;28;20020;-75
2023/09/04 11:53:58;;;;;;;4.40;1.80;;;25.70;78.80;;;;;;5095035;28;20036;-75
2023/09/04 11:56:23;;;;;;;3.22;1.50;;;25.80;78.00;;;;;;5095806;28;20051;-75
2023/09/04 11:58:49;;;;;;;2.70;1.63;;;25.90;77.00;;;;;;5095925;28;20020;-75
2023/09/04 12:01:15;;;;;;;3.95;1.60;;;26.00;79.10;;;;;;5077113;28;20031;-75
2023/09/04 12:03:40;;;;;;;2.63;1.65;;;26.10;78.20;;;;;;5115340;28;20492;-75
2023/09/04 12:06:07;;;;;;;2.50;1.50;;;26.10;75.80;;;;;;5115818;28;20480;-74
2023/09/04 12:08:33;;;;;;;2.45;1.35;;;26.20;75.20;;;;;;5116329;28;20035;-75
2023/09/04 12:10:59;;;;;;;2.45;1.25;;;26.30;75.90;;;;;;5110688;27;20024;-75
2023/09/04 12:13:25;;;;;;;3.03;1.65;;;26.50;77.60;;;;;;5096523;28;20024;-75
2023/09/04 12:15:50;;;;;;;2.20;1.40;;;26.60;77.80;;;;;;5098205;28;20094;-74
2023/09/04 12:18:16;;;;;;;2.20;1.42;;;26.80;75.40;;;;;;5096002;28;20024;-75
2023/09/04 12:20:44;;;;;;;2.05;1.23;;;26.80;70.60;;;;;;5094598;28;20028;-75
2023/09/04 12:23:10;;;;;;;2.50;1.27;;;26.80;71.40;;;;;;5094543;28;20473;-75
2023/09/04 12:25:40;;;;;;;3.17;1.20;;;26.80;72.90;;;;;;5095667;28;20028;-75
2023/09/04 12:28:07;;;;;;;;;;;26.90;72.40;;;;;;5095871;28;20408;-75
2023/09/04 12:30:47;;;;;;;2.08;1.02;;;26.90;72.70;;;;;;5094966;28;19999;-75
2023/09/04 12:33:16;;;;;;;2.63;1.50;;;26.90;70.90;;;;;;5094689;28;20030;-75
2023/09/04 12:35:43;;;;;;;2.95;1.42;;;26.90;72.70;;;;;;5094744;28;20070;-75
2023/09/04 12:38:10;;;;;;;2.25;1.33;;;27.00;70.00;;;;;;5094621;28;20032;-75
2023/09/04 12:40:36;;;;;;;2.55;1.30;;;27.00;72.20;;;;;;5094404;28;20081;-75
2023/09/04 12:43:03;;;;;;;3.20;1.40;;;27.10;72.40;;;;;;5094428;28;20035;-75
2023/09/04 12:45:29;;;;;;;2.83;1.50;;;27.20;70.10;;;;;;5097489;28;20028;-75